createdAt,value
2023-02-01T00:12:34.392Z,5.6
2023-02-01T00:27:44.939Z,5.5
2023-02-01T00:42:54.550Z,4.4
2023-02-01T00:58:04.166Z,5.6
2023-02-01T01:13:13.614Z,5.3
2023-02-01T01:28:23.147Z,5
2023-02-01T01:43:32.628Z,4.9
2023-02-01T01:58:41.875Z,4.7
2023-02-01T02:13:51.874Z,4.1
2023-02-01T02:29:01.565Z,4.7
2023-02-01T02:44:11.287Z,4.6
2023-02-01T02:59:21.054Z,4.9
2023-02-01T03:14:30.683Z,4.8
2023-02-01T03:29:40.785Z,4.9
2023-02-01T03:44:56.383Z,4
2023-02-01T04:00:05.873Z,4.8
2023-02-01T04:15:14.974Z,5.1
2023-02-01T04:30:25.490Z,6.2
2023-02-01T04:45:36.041Z,5.1
2023-02-01T05:00:45.727Z,4.6
2023-02-01T05:15:55.195Z,5.1
2023-02-01T05:31:05.330Z,4.7
2023-02-01T05:46:15.178Z,5.1
2023-02-01T06:01:23.746Z,5.2
2023-02-01T06:16:34.603Z,5.4
2023-02-01T06:31:44.413Z,5
2023-02-01T06:46:54.078Z,4.4
2023-02-01T07:02:03.925Z,5.2
2023-02-01T07:17:14.330Z,5.6
2023-02-01T07:32:24.688Z,6.1
2023-02-01T07:47:35.304Z,5.3
2023-02-01T08:02:44.101Z,4.6
2023-02-01T08:17:54.153Z,4
2023-02-01T08:33:04.202Z,5.1
2023-02-01T08:48:13.834Z,4.2
2023-02-01T09:03:23.191Z,3.8
2023-02-01T09:18:34.039Z,4
2023-02-01T09:33:43.949Z,3.9
2023-02-01T09:48:54.239Z,3.4
2023-02-01T10:07:54.389Z,4.9
2023-02-01T10:23:34.183Z,4.1
2023-02-01T10:38:44.759Z,4.5
2023-02-01T10:53:54.116Z,4.5
2023-02-01T11:09:04.037Z,3.9
2023-02-01T11:24:13.722Z,3.7
2023-02-01T11:39:23.493Z,4.1
2023-02-01T11:54:33.511Z,4.3
2023-02-01T12:09:42.885Z,4.1
2023-02-01T12:24:53.163Z,3.5
2023-02-01T12:40:02.477Z,3.8
2023-02-01T12:55:11.676Z,3.9
2023-02-01T13:10:22.103Z,4.9
2023-02-01T13:25:32.495Z,2.5
2023-02-01T13:40:41.159Z,1.5
2023-02-01T13:55:49.928Z,1.4
2023-02-01T14:10:59.698Z,1.4
2023-02-01T14:26:09.588Z,1.4
2023-02-01T14:41:19.694Z,1.5
2023-02-01T14:56:29.223Z,2.4
2023-02-01T15:11:38.937Z,2.5
2023-02-01T15:26:48.901Z,3.9
2023-02-01T15:41:59.743Z,4.1
2023-02-01T15:57:09.537Z,3.7
2023-02-01T16:12:19.102Z,3.5
2023-02-01T16:27:28.787Z,5
2023-02-01T16:42:38.330Z,4.6
2023-02-01T16:57:48.069Z,4.6
2023-02-01T17:12:57.997Z,5.6
2023-02-01T17:28:08.180Z,6
2023-02-01T17:43:18.080Z,6.7
2023-02-01T17:58:27.985Z,5.7
2023-02-01T18:13:37.672Z,5.3
2023-02-01T18:28:47.249Z,5.4
2023-02-01T18:43:56.697Z,4.1
2023-02-01T18:59:06.212Z,3.8
2023-02-01T19:14:16.133Z,3.9
2023-02-01T19:29:25.178Z,4.7
2023-02-01T19:44:35.102Z,4.6
2023-02-01T19:59:44.017Z,4.6
2023-02-01T20:14:53.653Z,5.5
2023-02-01T20:30:04.985Z,4.2
2023-02-01T20:45:15.791Z,3.8
2023-02-01T21:00:25.302Z,4.3
2023-02-01T21:15:34.483Z,5
2023-02-01T21:30:44.162Z,5.1
2023-02-01T21:45:55.001Z,5
2023-02-01T22:01:04.823Z,4
2023-02-01T22:16:14.869Z,4.6
2023-02-01T22:31:24.844Z,5
2023-02-01T22:46:34.063Z,4.7
2023-02-01T23:01:43.332Z,4.9
2023-02-01T23:16:55.413Z,4.4
2023-02-01T23:32:05.035Z,3.9
2023-02-01T23:47:14.363Z,5.4
